Station Historical Data
Daily Summary for April 9, 2017 Units:  English    Metric   Both
Next Day »
Daily Weekly Monthly Yearly Custom
  High: Low: Average:
Temperature: 52.5 °F 32.1 °F 41.1 °F
Dew Point: 40.1 °F 29.8 °F 34.8 °F
Humidity: 91% 50% 80%
Wind Speed: 14.0mph 0.0mph 1.2mph
Wind Gust: 15.0mph - -
Wind- - SE
Pressure: 30.30 in 30.23 in -
Precipitation: 0.00 in    
Historical Graphs
 
 
Tabular Data for April 9, 2017
Time Temperature Dew Point Pressure Wind Wind Speed Wind Gust Humidity Rainfall Rate (Hourly) solar Conditions
00:01 35.3 °F 32.9 °F 30.26 in ESE 4.0 mph 6.0 mph 91% 0.00 in 0.00 W/m2
00:06 35.3 °F 32.9 °F 30.26 in Calm   5.0 mph 91% 0.00 in 0.00 W/m2
00:11 35.2 °F 32.8 °F 30.26 in ESE 4.0 mph 6.0 mph 91% 0.00 in 0.00 W/m2
00:16 35.2 °F 32.8 °F 30.26 in Calm     91% 0.00 in 0.00 W/m2
00:21 35.2 °F 32.8 °F 30.26 in Calm   6.0 mph 91% 0.00 in 0.00 W/m2
00:26 35.2 °F 32.8 °F 30.27 in Calm   4.0 mph 91% 0.00 in 0.00 W/m2
00:31 35.1 °F 32.7 °F 30.27 in ESE 4.0 mph 6.0 mph 91% 0.00 in 0.00 W/m2
00:36 35.1 °F 32.7 °F 30.27 in ESE 2.0 mph 2.0 mph 91% 0.00 in 0.00 W/m2
00:37 35.1 °F 32.7 °F 30.27 in Calm   2.0 mph 91% 0.00 in 0.00 W/m2
00:42 35.1 °F 32.7 °F 30.27 in ESE 2.0 mph 6.0 mph 91% 0.00 in 0.00 W/m2
00:47 35.1 °F 32.7 °F 30.26 in ESE 4.0 mph 9.0 mph 91% 0.00 in 0.00 W/m2
00:52 35.1 °F 32.7 °F 30.26 in Calm   5.0 mph 91% 0.00 in 0.00 W/m2
00:57 35.0 °F 32.6 °F 30.26 in East 5.0 mph 6.0 mph 91% 0.00 in 0.00 W/m2
01:02 35.0 °F 32.6 °F 30.26 in Calm   6.0 mph 91% 0.00 in 0.00 W/m2
01:07 35.0 °F 32.6 °F 30.26 in Calm   4.0 mph 91% 0.00 in 0.00 W/m2
01:12 34.9 °F 32.5 °F 30.26 in East 2.0 mph 6.0 mph 91% 0.00 in 0.00 W/m2
01:17 34.8 °F 32.5 °F 30.26 in Calm   8.0 mph 91% 0.00 in 0.00 W/m2
01:22 34.8 °F 32.5 °F 30.26 in East 1.0 mph 7.0 mph 91% 0.00 in 0.00 W/m2
01:27 34.7 °F 32.3 °F 30.25 in Calm   8.0 mph 91% 0.00 in 0.00 W/m2
01:32 34.7 °F 32.3 °F 30.25 in Calm   8.0 mph 91% 0.00 in 0.00 W/m2
01:37 34.6 °F 32.2 °F 30.26 in Calm   4.0 mph 91% 0.00 in 0.00 W/m2
01:42 34.6 °F 32.2 °F 30.26 in East 6.0 mph 7.0 mph 91% 0.00 in 0.00 W/m2
01:47 34.6 °F 32.2 °F 30.25 in Calm   4.0 mph 91% 0.00 in 0.00 W/m2
01:53 34.6 °F 32.2 °F 30.25 in Calm   5.0 mph 91% 0.00 in 0.00 W/m2
01:57 34.5 °F 32.2 °F 30.25 in Calm   2.0 mph 91% 0.00 in 0.00 W/m2
02:02 34.4 °F 32.0 °F 30.25 in East 4.0 mph 8.0 mph 91% 0.00 in 0.00 W/m2
02:07 34.4 °F 32.0 °F 30.25 in Calm     91% 0.00 in 0.00 W/m2
02:13 34.3 °F 32.0 °F 30.25 in East 4.0 mph 7.0 mph 91% 0.00 in 0.00 W/m2
02:18 34.3 °F 32.0 °F 30.25 in East 4.0 mph 4.0 mph 91% 0.00 in 0.00 W/m2
02:23 34.2 °F 31.9 °F 30.25 in Calm   5.0 mph 91% 0.00 in 0.00 W/m2
02:28 34.1 °F 31.8 °F 30.25 in East 4.0 mph 5.0 mph 91% 0.00 in 0.00 W/m2
02:33 34.0 °F 31.6 °F 30.25 in Calm   7.0 mph 91% 0.00 in 0.00 W/m2
02:38 33.9 °F 31.6 °F 30.25 in Calm   5.0 mph 91% 0.00 in 0.00 W/m2
02:43 33.8 °F 31.5 °F 30.25 in Calm     91% 0.00 in 0.00 W/m2
02:48 33.6 °F 31.3 °F 30.24 in Calm     91% 0.00 in 0.00 W/m2
02:53 33.5 °F 31.2 °F 30.24 in Calm     91% 0.00 in 0.00 W/m2
02:58 33.5 °F 31.2 °F 30.24 in Calm     91% 0.00 in 0.00 W/m2
03:03 33.5 °F 31.2 °F 30.24 in Calm     91% 0.00 in 0.00 W/m2
03:08 33.4 °F 31.1 °F 30.24 in East 4.0 mph 4.0 mph 91% 0.00 in 0.00 W/m2
03:13 33.4 °F 31.1 °F 30.24 in Calm     91% 0.00 in 0.00 W/m2
03:18 33.3 °F 31.0 °F 30.24 in Calm   2.0 mph 91% 0.00 in 0.00 W/m2
03:23 33.3 °F 31.0 °F 30.24 in Calm   4.0 mph 91% 0.00 in 0.00 W/m2
03:28 33.3 °F 31.0 °F 30.24 in Calm   6.0 mph 91% 0.00 in 0.00 W/m2
03:33 33.3 °F 31.0 °F 30.24 in Calm     91% 0.00 in 0.00 W/m2
03:38 33.2 °F 30.9 °F 30.24 in Calm   7.0 mph 91% 0.00 in 0.00 W/m2
03:43 33.2 °F 30.9 °F 30.24 in Calm   5.0 mph 91% 0.00 in 0.00 W/m2
03:48 33.2 °F 30.9 °F 30.24 in Calm   4.0 mph 91% 0.00 in 0.00 W/m2
03:53 33.1 °F 30.8 °F 30.24 in Calm     91% 0.00 in 0.00 W/m2
03:58 33.0 °F 30.7 °F 30.24 in Calm   4.0 mph 91% 0.00 in 0.00 W/m2
04:03 33.0 °F 30.7 °F 30.24 in Calm     91% 0.00 in 0.00 W/m2
04:08 33.0 °F 30.7 °F 30.24 in Calm   4.0 mph 91% 0.00 in 0.00 W/m2
04:13 32.9 °F 30.6 °F 30.24 in East 4.0 mph 4.0 mph 91% 0.00 in 0.00 W/m2
04:18 32.8 °F 30.5 °F 30.24 in East 6.0 mph 8.0 mph 91% 0.00 in 0.00 W/m2
04:23 32.8 °F 30.5 °F 30.24 in Calm   6.0 mph 91% 0.00 in 0.00 W/m2
04:28 32.7 °F 30.4 °F 30.24 in Calm   8.0 mph 91% 0.00 in 0.00 W/m2
04:33 32.7 °F 30.4 °F 30.24 in Calm   7.0 mph 91% 0.00 in 0.00 W/m2
04:38 32.6 °F 30.3 °F 30.24 in East 2.0 mph 13.0 mph 91% 0.00 in 0.00 W/m2
04:43 32.6 °F 30.3 °F 30.24 in East 2.0 mph 12.0 mph 91% 0.00 in 0.00 W/m2
04:48 32.6 °F 30.3 °F 30.24 in Calm   9.0 mph 91% 0.00 in 0.00 W/m2
04:53 32.5 °F 30.2 °F 30.24 in Calm   12.0 mph 91% 0.00 in 0.00 W/m2
04:58 32.5 °F 30.2 °F 30.24 in East 2.0 mph 6.0 mph 91% 0.00 in 0.00 W/m2
05:03 32.5 °F 30.2 °F 30.24 in Calm   11.0 mph 91% 0.00 in 0.00 W/m2
05:08 32.4 °F 30.1 °F 30.24 in Calm   12.0 mph 91% 0.00 in 0.00 W/m2
05:14 32.4 °F 30.1 °F 30.24 in ESE 11.0 mph 14.0 mph 91% 0.00 in 0.00 W/m2
05:19 32.4 °F 30.1 °F 30.24 in East 1.0 mph 12.0 mph 91% 0.00 in 0.00 W/m2
05:24 32.4 °F 30.1 °F 30.24 in Calm   13.0 mph 91% 0.00 in 0.00 W/m2
05:29 32.4 °F 30.1 °F 30.24 in East 1.0 mph 12.0 mph 91% 0.00 in 0.00 W/m2
05:34 32.4 °F 30.1 °F 30.24 in ESE 2.0 mph 13.0 mph 91% 0.00 in 0.00 W/m2
05:39 32.4 °F 30.1 °F 30.24 in Calm   9.0 mph 91% 0.00 in 0.00 W/m2
05:44 32.3 °F 30.0 °F 30.24 in East 1.0 mph 11.0 mph 91% 0.00 in 0.00 W/m2
05:49 32.3 °F 30.0 °F 30.24 in Calm   13.0 mph 91% 0.00 in 0.00 W/m2
05:54 32.3 °F 30.0 °F 30.24 in East 4.0 mph 9.0 mph 91% 0.00 in 0.00 W/m2
05:59 32.3 °F 30.0 °F 30.24 in East 2.0 mph 7.0 mph 91% 0.00 in 0.00 W/m2
06:04 32.3 °F 30.0 °F 30.24 in Calm   7.0 mph 91% 0.00 in 0.00 W/m2
06:09 32.3 °F 30.0 °F 30.24 in Calm   9.0 mph 91% 0.00 in 0.00 W/m2
06:14 32.2 °F 29.9 °F 30.24 in Calm   9.0 mph 91% 0.00 in 0.00 W/m2
06:15 32.2 °F 29.9 °F 30.24 in Calm   9.0 mph 91% 0.00 in 0.00 W/m2
06:20 32.2 °F 29.9 °F 30.24 in Calm   11.0 mph 91% 0.00 in 0.00 W/m2
06:25 32.2 °F 29.9 °F 30.24 in ESE 9.0 mph 9.0 mph 91% 0.00 in 0.00 W/m2
06:30 32.1 °F 29.8 °F 30.24 in ESE 2.0 mph 11.0 mph 91% 0.00 in 0.00 W/m2
06:35 32.1 °F 29.8 °F 30.24 in East 8.0 mph 9.0 mph 91% 0.00 in 5.00 W/m2
06:40 32.1 °F 29.8 °F 30.24 in ESE 1.0 mph 12.0 mph 91% 0.00 in 9.00 W/m2
06:45 32.1 °F 29.8 °F 30.25 in ESE 1.0 mph 13.0 mph 91% 0.00 in 14.00 W/m2
06:48 32.1 °F 29.8 °F 30.25 in Calm   12.0 mph 91% 0.00 in 16.00 W/m2
06:53 32.1 °F 29.8 °F 30.25 in East 2.0 mph 12.0 mph 91% 0.00 in 21.00 W/m2
06:58 32.1 °F 29.8 °F 30.25 in ESE 4.0 mph 12.0 mph 91% 0.00 in 26.00 W/m2
07:03 32.1 °F 29.8 °F 30.25 in Calm   5.0 mph 91% 0.00 in 33.00 W/m2
07:08 32.1 °F 29.8 °F 30.25 in Calm   12.0 mph 91% 0.00 in 44.00 W/m2
07:13 32.1 °F 29.8 °F 30.25 in Calm   14.0 mph 91% 0.00 in 54.00 W/m2
07:18 32.2 °F 29.9 °F 30.25 in Calm   15.0 mph 91% 0.00 in 69.00 W/m2
07:23 32.2 °F 29.9 °F 30.26 in East 1.0 mph 5.0 mph 91% 0.00 in 83.00 W/m2
07:29 32.3 °F 30.0 °F 30.26 in Calm   11.0 mph 91% 0.00 in 98.00 W/m2
07:34 32.3 °F 30.0 °F 30.26 in Calm   7.0 mph 91% 0.00 in 116.00 W/m2
07:39 32.4 °F 30.1 °F 30.26 in ESE 2.0 mph 11.0 mph 91% 0.00 in 132.00 W/m2
07:44 32.5 °F 30.2 °F 30.26 in East 1.0 mph 6.0 mph 91% 0.00 in 151.00 W/m2
07:49 32.6 °F 30.3 °F 30.26 in Calm   9.0 mph 91% 0.00 in 167.00 W/m2
07:54 32.7 °F 30.4 °F 30.26 in East 6.0 mph 7.0 mph 91% 0.00 in 190.00 W/m2
07:59 32.8 °F 30.5 °F 30.26 in Calm   8.0 mph 91% 0.00 in 206.00 W/m2
08:04 32.9 °F 30.6 °F 30.26 in East 1.0 mph 12.0 mph 91% 0.00 in 234.00 W/m2
08:09 33.0 °F 30.7 °F 30.26 in East 1.0 mph 11.0 mph 91% 0.00 in 255.00 W/m2
08:14 33.1 °F 30.8 °F 30.26 in East 5.0 mph 8.0 mph 91% 0.00 in 279.00 W/m2
08:19 33.2 °F 30.9 °F 30.26 in ESE 11.0 mph 12.0 mph 91% 0.00 in 299.00 W/m2
08:24 33.4 °F 31.1 °F 30.26 in ESE 4.0 mph 8.0 mph 91% 0.00 in 315.00 W/m2
08:29 33.5 °F 31.2 °F 30.27 in ESE 12.0 mph 15.0 mph 91% 0.00 in 334.00 W/m2
08:34 33.7 °F 31.4 °F 30.27 in East 14.0 mph 14.0 mph 91% 0.00 in 353.00 W/m2
08:39 33.9 °F 31.6 °F 30.27 in ESE 11.0 mph 15.0 mph 91% 0.00 in 371.00 W/m2
08:44 34.1 °F 31.8 °F 30.27 in ESE 6.0 mph 12.0 mph 91% 0.00 in 390.00 W/m2
08:49 34.3 °F 32.0 °F 30.27 in Calm   5.0 mph 91% 0.00 in 404.00 W/m2
08:54 34.5 °F 32.2 °F 30.28 in ESE 2.0 mph 4.0 mph 91% 0.00 in 424.00 W/m2
08:59 34.8 °F 32.5 °F 30.27 in ESE 1.0 mph 4.0 mph 91% 0.00 in 439.00 W/m2
09:04 35.1 °F 32.7 °F 30.28 in Calm   12.0 mph 91% 0.00 in 455.00 W/m2
09:09 35.4 °F 33.0 °F 30.28 in Calm   8.0 mph 91% 0.00 in 471.00 W/m2
09:14 35.7 °F 33.3 °F 30.28 in ESE 4.0 mph 4.0 mph 91% 0.00 in 489.00 W/m2
09:19 36.1 °F 33.7 °F 30.28 in Calm   2.0 mph 91% 0.00 in 508.00 W/m2
09:24 36.4 °F 34.0 °F 30.28 in ESE 4.0 mph 4.0 mph 91% 0.00 in 522.00 W/m2
09:29 36.8 °F 34.4 °F 30.29 in Calm   4.0 mph 91% 0.00 in 536.00 W/m2
09:30 36.8 °F 34.4 °F 30.28 in ESE 5.0 mph 5.0 mph 91% 0.00 in 538.00 W/m2
09:35 37.1 °F 34.7 °F 30.29 in ESE 1.0 mph 5.0 mph 91% 0.00 in 554.00 W/m2
09:40 37.4 °F 35.0 °F 30.29 in Calm   2.0 mph 91% 0.00 in 568.00 W/m2
09:45 37.7 °F 35.3 °F 30.29 in Calm     91% 0.00 in 584.00 W/m2
09:50 38.0 °F 35.3 °F 30.29 in Calm     90% 0.00 in 601.00 W/m2
09:55 38.4 °F 35.7 °F 30.29 in ESE 1.0 mph 4.0 mph 90% 0.00 in 615.00 W/m2
10:00 38.6 °F 35.9 °F 30.30 in Calm     90% 0.00 in 629.00 W/m2
10:05 38.7 °F 35.7 °F 30.30 in Calm     89% 0.00 in 642.00 W/m2
10:10 39.2 °F 36.2 °F 30.30 in East 2.0 mph 4.0 mph 89% 0.00 in 657.00 W/m2
10:15 39.8 °F 35.4 °F 30.30 in Calm   2.0 mph 84% 0.00 in 671.00 W/m2
10:20 40.6 °F 35.8 °F 30.30 in Calm   1.0 mph 83% 0.00 in 682.00 W/m2
10:25 41.2 °F 35.5 °F 30.30 in Calm   2.0 mph 80% 0.00 in 694.00 W/m2
10:30 41.6 °F 37.1 °F 30.30 in East 2.0 mph 2.0 mph 84% 0.00 in 708.00 W/m2
10:35 41.9 °F 37.4 °F 30.30 in Calm   4.0 mph 84% 0.00 in 722.00 W/m2
10:40 42.2 °F 35.8 °F 30.30 in Calm   2.0 mph 78% 0.00 in 735.00 W/m2
10:45 42.4 °F 36.0 °F 30.30 in East 1.0 mph 1.0 mph 78% 0.00 in 744.00 W/m2
10:50 42.7 °F 37.0 °F 30.30 in Calm   4.0 mph 80% 0.00 in 758.00 W/m2
10:55 42.9 °F 38.1 °F 30.30 in East 2.0 mph 2.0 mph 83% 0.00 in 768.00 W/m2
11:00 43.1 °F 38.0 °F 30.30 in East 1.0 mph 5.0 mph 82% 0.00 in 779.00 W/m2
11:05 43.4 °F 37.3 °F 30.30 in Calm   5.0 mph 79% 0.00 in 782.00 W/m2
11:10 43.7 °F 37.3 °F 30.30 in Calm   3.0 mph 78% 0.00 in 795.00 W/m2
11:15 43.9 °F 37.5 °F 30.30 in Calm     78% 0.00 in 809.00 W/m2
11:20 44.3 °F 38.2 °F 30.30 in NE 1.0 mph 3.0 mph 79% 0.00 in 814.00 W/m2
11:25 44.5 °F 38.7 °F 30.30 in Calm   2.0 mph 80% 0.00 in 821.00 W/m2
11:30 44.8 °F 39.0 °F 30.30 in NNE 1.0 mph 3.0 mph 80% 0.00 in 831.00 W/m2
11:35 45.0 °F 38.9 °F 30.30 in NNE 3.0 mph 3.0 mph 79% 0.00 in 837.00 W/m2
11:40 45.2 °F 38.4 °F 30.30 in NNW 1.0 mph 4.0 mph 77% 0.00 in 847.00 W/m2
11:45 45.5 °F 37.7 °F 30.30 in Calm   2.0 mph 74% 0.00 in 854.00 W/m2
11:50 45.9 °F 38.1 °F 30.30 in WSW 7.0 mph 10.0 mph 74% 0.00 in 861.00 W/m2
11:56 46.2 °F 37.3 °F 30.30 in WSW 1.0 mph 8.0 mph 71% 0.00 in 865.00 W/m2
12:01 46.7 °F 38.9 °F 30.30 in Calm   3.0 mph 74% 0.00 in 872.00 W/m2
12:06 47.0 °F 39.5 °F 30.30 in Calm   6.0 mph 75% 0.00 in 875.00 W/m2
12:11 47.3 °F 38.4 °F 30.30 in Calm   7.0 mph 71% 0.00 in 879.00 W/m2
12:16 47.6 °F 36.8 °F 30.30 in West 3.0 mph 6.0 mph 66% 0.00 in 886.00 W/m2
12:21 47.8 °F 37.4 °F 30.30 in Calm   8.0 mph 67% 0.00 in 888.00 W/m2
12:26 48.1 °F 37.3 °F 30.29 in Calm   2.0 mph 66% 0.00 in 888.00 W/m2
12:31 48.3 °F 38.6 °F 30.30 in Calm   7.0 mph 69% 0.00 in 893.00 W/m2
12:36 48.8 °F 38.7 °F 30.30 in SW 1.0 mph 7.0 mph 68% 0.00 in 891.00 W/m2
12:41 49.2 °F 39.8 °F 30.29 in Calm   8.0 mph 70% 0.00 in 896.00 W/m2
12:46 49.6 °F 39.1 °F 30.29 in Calm   9.0 mph 67% 0.00 in 896.00 W/m2
12:51 50.0 °F 37.9 °F 30.29 in Calm   2.0 mph 63% 0.00 in 898.00 W/m2
12:56 50.2 °F 37.7 °F 30.29 in SW 1.0 mph 2.0 mph 62% 0.00 in 905.00 W/m2
13:01 50.3 °F 39.0 °F 30.29 in Calm   8.0 mph 65% 0.00 in 904.00 W/m2
13:06 50.6 °F 40.1 °F 30.29 in Calm   9.0 mph 67% 0.00 in 900.00 W/m2
13:11 50.7 °F 36.9 °F 30.28 in Calm   1.0 mph 59% 0.00 in 900.00 W/m2
13:16 50.5 °F 36.7 °F 30.28 in SW 7.0 mph 8.0 mph 59% 0.00 in 900.00 W/m2
13:21 50.5 °F 35.4 °F 30.28 in Calm   9.0 mph 56% 0.00 in 896.00 W/m2
13:26 50.5 °F 37.6 °F 30.27 in Calm   8.0 mph 61% 0.00 in 895.00 W/m2
13:31 50.7 °F 38.2 °F 30.27 in South 1.0 mph 1.0 mph 62% 0.00 in 889.00 W/m2
13:36 51.1 °F 35.5 °F 30.27 in SW 1.0 mph 1.0 mph 55% 0.00 in 889.00 W/m2
13:41 51.1 °F 34.1 °F 30.27 in Calm     52% 0.00 in 884.00 W/m2
13:46 50.9 °F 36.7 °F 30.27 in Calm     58% 0.00 in 882.00 W/m2
13:51 51.3 °F 37.0 °F 30.27 in WSW 4.0 mph 6.0 mph 58% 0.00 in 879.00 W/m2
13:56 51.6 °F 37.8 °F 30.27 in WSW 1.0 mph 1.0 mph 59% 0.00 in 874.00 W/m2
14:01 51.5 °F 35.0 °F 30.27 in Calm     53% 0.00 in 868.00 W/m2
14:06 51.6 °F 37.3 °F 30.26 in Calm     58% 0.00 in 861.00 W/m2
14:11 51.8 °F 35.2 °F 30.27 in Calm     53% 0.00 in 858.00 W/m2
14:16 52.0 °F 36.8 °F 30.27 in Calm     56% 0.00 in 847.00 W/m2
14:21 52.1 °F 34.0 °F 30.27 in Calm   1.0 mph 50% 0.00 in 842.00 W/m2
14:22 52.1 °F 34.5 °F 30.27 in Calm   7.0 mph 51% 0.00 in 842.00 W/m2
14:27 52.3 °F 36.2 °F 30.27 in WSW 1.0 mph 7.0 mph 54% 0.00 in 835.00 W/m2
14:33 52.4 °F 37.2 °F 30.27 in Calm   8.0 mph 56% 0.00 in 821.00 W/m2
14:38 52.4 °F 38.5 °F 30.26 in Calm   8.0 mph 59% 0.00 in 810.00 W/m2
14:43 52.5 °F 38.2 °F 30.26 in Calm   11.0 mph 58% 0.00 in 807.00 W/m2
14:48 52.3 °F 37.5 °F 30.26 in Calm   7.0 mph 57% 0.00 in 796.00 W/m2
14:53 52.0 °F 36.8 °F 30.26 in SSW 7.0 mph 11.0 mph 56% 0.00 in 788.00 W/m2
14:58 51.9 °F 36.3 °F 30.26 in Calm   10.0 mph 55% 0.00 in 784.00 W/m2
15:03 51.8 °F 35.7 °F 30.26 in West 6.0 mph 9.0 mph 54% 0.00 in 777.00 W/m2
15:08 51.7 °F 34.2 °F 30.25 in Calm   1.0 mph 51% 0.00 in 765.00 W/m2
15:13 51.7 °F 35.6 °F 30.25 in Calm   7.0 mph 54% 0.00 in 754.00 W/m2
15:18 51.8 °F 36.6 °F 30.25 in WSW 6.0 mph 8.0 mph 56% 0.00 in 744.00 W/m2
15:23 51.9 °F 37.2 °F 30.25 in Calm   8.0 mph 57% 0.00 in 726.00 W/m2
15:28 51.9 °F 36.3 °F 30.25 in SSW 2.0 mph 9.0 mph 55% 0.00 in 714.00 W/m2
15:33 52.0 °F 36.8 °F 30.25 in West 7.0 mph 7.0 mph 56% 0.00 in 700.00 W/m2
15:38 51.9 °F 35.8 °F 30.25 in Calm   6.0 mph 54% 0.00 in 700.00 W/m2
15:43 51.8 °F 37.5 °F 30.25 in Calm   9.0 mph 58% 0.00 in 691.00 W/m2
15:48 51.8 °F 37.1 °F 30.25 in Calm   7.0 mph 57% 0.00 in 666.00 W/m2
15:53 51.8 °F 37.1 °F 30.25 in Calm   1.0 mph 57% 0.00 in 656.00 W/m2
15:58 51.8 °F 37.5 °F 30.24 in SW 6.0 mph 9.0 mph 58% 0.00 in 647.00 W/m2
16:03 51.8 °F 36.6 °F 30.24 in Calm   8.0 mph 56% 0.00 in 628.00 W/m2
16:08 51.8 °F 35.2 °F 30.24 in Calm   7.0 mph 53% 0.00 in 615.00 W/m2
16:13 51.8 °F 35.7 °F 30.23 in Calm   6.0 mph 54% 0.00 in 601.00 W/m2
16:15 51.8 °F 35.7 °F 30.23 in Calm   6.0 mph 54% 0.00 in 596.00 W/m2
16:20 51.7 °F 35.6 °F 30.23 in WSW 1.0 mph 8.0 mph 54% 0.00 in 570.00 W/m2
16:25 51.6 °F 34.6 °F 30.23 in Calm   8.0 mph 52% 0.00 in 536.00 W/m2
16:30 51.5 °F 35.4 °F 30.23 in Calm   7.0 mph 54% 0.00 in 519.00 W/m2
16:35 51.4 °F 36.2 °F 30.24 in WSW 8.0 mph 9.0 mph 56% 0.00 in 510.00 W/m2
16:40 51.4 °F 34.9 °F 30.24 in Calm   11.0 mph 53% 0.00 in 462.00 W/m2
16:45 51.3 °F 34.8 °F 30.24 in Calm   9.0 mph 53% 0.00 in 418.00 W/m2
16:50 51.2 °F 35.6 °F 30.24 in SW 9.0 mph 12.0 mph 55% 0.00 in 408.00 W/m2
16:55 51.1 °F 36.8 °F 30.23 in WSW 3.0 mph 9.0 mph 58% 0.00 in 345.00 W/m2
17:00 51.0 °F 37.6 °F 30.24 in SW 5.0 mph 6.0 mph 60% 0.00 in 408.00 W/m2
17:05 50.9 °F 38.0 °F 30.23 in Calm   7.0 mph 61% 0.00 in 348.00 W/m2
17:10 50.8 °F 37.8 °F 30.23 in West 6.0 mph 10.0 mph 61% 0.00 in 306.00 W/m2
17:15 50.7 °F 37.3 °F 30.23 in Calm   9.0 mph 60% 0.00 in 257.00 W/m2
17:20 50.5 °F 37.2 °F 30.23 in SW 4.0 mph 10.0 mph 60% 0.00 in 234.00 W/m2
17:25 50.3 °F 36.5 °F 30.24 in WSW 4.0 mph 7.0 mph 59% 0.00 in 257.00 W/m2
17:30 50.2 °F 35.6 °F 30.24 in SW 3.0 mph 10.0 mph 57% 0.00 in 234.00 W/m2
17:35 50.0 °F 36.7 °F 30.24 in Calm   10.0 mph 60% 0.00 in 230.00 W/m2
17:40 49.9 °F 37.4 °F 30.24 in Calm   10.0 mph 62% 0.00 in 237.00 W/m2
17:45 49.7 °F 37.6 °F 30.24 in Calm   1.0 mph 63% 0.00 in 223.00 W/m2
17:50 49.6 °F 37.9 °F 30.24 in Calm   8.0 mph 64% 0.00 in 162.00 W/m2
17:55 49.4 °F 37.3 °F 30.24 in Calm   1.0 mph 63% 0.00 in 151.00 W/m2
18:00 49.1 °F 37.9 °F 30.24 in Calm     65% 0.00 in 169.00 W/m2
18:05 48.9 °F 38.1 °F 30.24 in Calm   1.0 mph 66% 0.00 in 153.00 W/m2
18:10 48.8 °F 39.1 °F 30.24 in WSW 5.0 mph 9.0 mph 69% 0.00 in 148.00 W/m2
18:15 48.6 °F 38.2 °F 30.24 in Calm   5.0 mph 67% 0.00 in 193.00 W/m2
18:20 48.5 °F 38.8 °F 30.24 in Calm   1.0 mph 69% 0.00 in 158.00 W/m2
18:25 48.3 °F 39.0 °F 30.24 in Calm     70% 0.00 in 171.00 W/m2
18:30 48.1 °F 39.5 °F 30.24 in Calm     72% 0.00 in 139.00 W/m2
18:36 48.0 °F 39.1 °F 30.24 in Calm   1.0 mph 71% 0.00 in 120.00 W/m2
18:41 47.9 °F 38.2 °F 30.24 in Calm     69% 0.00 in 98.00 W/m2
18:46 47.8 °F 38.5 °F 30.24 in Calm   1.0 mph 70% 0.00 in 81.00 W/m2
18:51 47.8 °F 39.2 °F 30.24 in Calm     72% 0.00 in 69.00 W/m2
18:56 47.7 °F 39.8 °F 30.24 in Calm     74% 0.00 in 54.00 W/m2
19:01 47.5 °F 39.6 °F 30.24 in Calm     74% 0.00 in 42.00 W/m2
19:06 47.4 °F 39.5 °F 30.24 in Calm     74% 0.00 in 30.00 W/m2
19:11 47.2 °F 39.7 °F 30.24 in Calm     75% 0.00 in 21.00 W/m2
19:16 47.0 °F 39.8 °F 30.24 in Calm     76% 0.00 in 16.00 W/m2
19:21 46.8 °F 39.7 °F 30.24 in Calm     76% 0.00 in 12.00 W/m2
19:26 46.6 °F 39.8 °F 30.24 in Calm     77% 0.00 in 11.00 W/m2
19:31 46.2 °F 39.7 °F 30.23 in Calm     78% 0.00 in 7.00 W/m2
19:36 45.7 °F 39.9 °F 30.23 in Calm     80% 0.00 in 5.00 W/m2
19:41 45.3 °F 39.5 °F 30.24 in Calm     80% 0.00 in 0.00 W/m2
19:46 45.0 °F 39.2 °F 30.24 in Calm     80% 0.00 in 0.00 W/m2
19:51 44.7 °F 39.2 °F 30.24 in Calm     81% 0.00 in 0.00 W/m2
19:56 44.3 °F 38.8 °F 30.24 in Calm     81% 0.00 in 0.00 W/m2
20:01 44.0 °F 38.9 °F 30.24 in Calm     82% 0.00 in 0.00 W/m2
20:06 43.7 °F 38.6 °F 30.24 in Calm     82% 0.00 in 0.00 W/m2
20:11 43.4 °F 38.6 °F 30.24 in Calm     83% 0.00 in 0.00 W/m2
20:16 43.1 °F 38.3 °F 30.24 in Calm     83% 0.00 in 0.00 W/m2
20:21 42.8 °F 38.3 °F 30.24 in Calm     84% 0.00 in 0.00 W/m2
20:26 42.6 °F 38.1 °F 30.24 in Calm     84% 0.00 in 0.00 W/m2
20:31 42.4 °F 38.2 °F 30.24 in Calm     85% 0.00 in 0.00 W/m2
20:36 42.3 °F 38.1 °F 30.24 in Calm     85% 0.00 in 0.00 W/m2
20:42 42.1 °F 37.9 °F 30.24 in Calm     85% 0.00 in 0.00 W/m2
20:47 42.0 °F 37.8 °F 30.24 in Calm     85% 0.00 in 0.00 W/m2
20:52 42.0 °F 37.8 °F 30.25 in Calm     85% 0.00 in 0.00 W/m2
20:57 41.9 °F 38.0 °F 30.25 in Calm     86% 0.00 in 0.00 W/m2
21:02 41.8 °F 37.9 °F 30.25 in Calm     86% 0.00 in 0.00 W/m2
21:07 41.6 °F 37.7 °F 30.25 in Calm     86% 0.00 in 0.00 W/m2
21:12 41.6 °F 37.7 °F 30.25 in Calm     86% 0.00 in 0.00 W/m2
21:17 41.5 °F 37.6 °F 30.25 in Calm     86% 0.00 in 0.00 W/m2
21:22 41.5 °F 37.9 °F 30.25 in Calm     87% 0.00 in 0.00 W/m2
21:27 41.4 °F 37.8 °F 30.25 in Calm     87% 0.00 in 0.00 W/m2
21:32 41.3 °F 37.7 °F 30.25 in Calm     87% 0.00 in 0.00 W/m2
21:37 41.2 °F 37.3 °F 30.25 in Calm     86% 0.00 in 0.00 W/m2
21:42 41.2 °F 37.3 °F 30.26 in Calm     86% 0.00 in 0.00 W/m2
21:47 41.1 °F 37.2 °F 30.26 in Calm     86% 0.00 in 0.00 W/m2
21:52 41.0 °F 37.1 °F 30.26 in Calm     86% 0.00 in 0.00 W/m2
21:57 40.9 °F 37.0 °F 30.26 in Calm     86% 0.00 in 0.00 W/m2
22:02 40.8 °F 36.9 °F 30.26 in Calm     86% 0.00 in 0.00 W/m2
22:07 40.7 °F 36.8 °F 30.26 in Calm     86% 0.00 in 0.00 W/m2
22:12 40.6 °F 36.8 °F 30.26 in Calm     86% 0.00 in 0.00 W/m2
22:17 40.5 °F 36.7 °F 30.26 in Calm     86% 0.00 in 0.00 W/m2
22:22 40.4 °F 36.5 °F 30.26 in Calm     86% 0.00 in 0.00 W/m2
22:27 40.2 °F 36.3 °F 30.26 in Calm     86% 0.00 in 0.00 W/m2
22:32 40.2 °F 36.3 °F 30.27 in Calm     86% 0.00 in 0.00 W/m2
22:37 40.1 °F 36.3 °F 30.27 in Calm     86% 0.00 in 0.00 W/m2
22:42 39.9 °F 36.1 °F 30.27 in Calm     86% 0.00 in 0.00 W/m2
22:47 39.8 °F 36.0 °F 30.26 in Calm     86% 0.00 in 0.00 W/m2
22:52 39.7 °F 35.9 °F 30.26 in Calm     86% 0.00 in 0.00 W/m2
22:57 39.6 °F 35.8 °F 30.27 in Calm     86% 0.00 in 0.00 W/m2
23:02 39.6 °F 35.8 °F 30.27 in Calm     86% 0.00 in 0.00 W/m2
23:07 39.5 °F 35.7 °F 30.27 in Calm     86% 0.00 in 0.00 W/m2
23:12 39.4 °F 35.9 °F 30.27 in Calm     87% 0.00 in 0.00 W/m2
23:17 39.3 °F 35.8 °F 30.27 in Calm     87% 0.00 in 0.00 W/m2
23:22 39.3 °F 35.8 °F 30.27 in Calm     87% 0.00 in 0.00 W/m2
23:28 39.2 °F 35.7 °F 30.27 in Calm     87% 0.00 in 0.00 W/m2
23:33 39.2 °F 35.7 °F 30.27 in Calm     87% 0.00 in 0.00 W/m2
23:38 39.2 °F 35.7 °F 30.27 in Calm     87% 0.00 in 0.00 W/m2
23:43 39.2 °F 35.7 °F 30.27 in Calm     87% 0.00 in 0.00 W/m2
23:48 39.1 °F 35.6 °F 30.28 in Calm     87% 0.00 in 0.00 W/m2
23:53 39.1 °F 35.6 °F 30.28 in Calm   1.0 mph 87% 0.00 in 0.00 W/m2
23:58 39.0 °F 35.5 °F 30.27 in Calm   4.0 mph 87% 0.00 in 0.00 W/m2
Foresthill Weather
 WU-history PHP script courtesy of   Juneau County Weather.
powered by Cumulus v1.9.3 (1059)
Ambient Weather VWS v14.00
Top Contact Website Map Copyright © 2007 - 2018 Foresthillweather.com Never base important decisions on this or any weather information obtained from the Internet